createdAt,value
2018-10-02T00:01:12.262Z,76.05
2018-10-02T00:03:36.100Z,75.45
2018-10-02T00:05:59.951Z,75.01
2018-10-02T00:08:24.022Z,76.11
2018-10-02T00:10:53.029Z,75.68
2018-10-02T00:13:22.314Z,75.67
2018-10-02T00:15:46.162Z,76.57
2018-10-02T00:18:10.024Z,77.10
2018-10-02T00:20:33.867Z,77.27
2018-10-02T00:22:57.758Z,76.94
2018-10-02T00:25:21.602Z,77.38
2018-10-02T00:27:45.454Z,76.58
2018-10-02T00:30:09.365Z,77.02
2018-10-02T00:32:33.286Z,77.64
2018-10-02T00:34:57.211Z,77.25
2018-10-02T00:37:21.065Z,76.21
2018-10-02T00:39:44.895Z,77.18
2018-10-02T00:42:09.279Z,77.70
2018-10-02T00:44:33.140Z,78.24
2018-10-02T00:46:57.038Z,78.37
2018-10-02T00:49:20.889Z,78.04
2018-10-02T00:51:44.711Z,75.83
2018-10-02T00:54:08.603Z,76.26
2018-10-02T00:56:32.443Z,75.55
2018-10-02T00:58:56.310Z,75.82
2018-10-02T01:01:20.196Z,75.61
2018-10-02T01:03:44.112Z,74.87
2018-10-02T01:06:08.097Z,75.11
2018-10-02T01:08:31.960Z,76.09
2018-10-02T01:10:55.809Z,74.46
2018-10-02T01:13:19.664Z,75.26
2018-10-02T01:15:43.505Z,76.03
2018-10-02T01:18:07.436Z,77.36
2018-10-02T01:20:31.399Z,77.95
2018-10-02T01:22:55.875Z,77.79
2018-10-02T01:25:19.794Z,76.76
2018-10-02T01:27:43.655Z,76.60
2018-10-02T01:30:07.844Z,76.77
2018-10-02T01:32:31.710Z,77.07
2018-10-02T01:34:55.576Z,76.32
2018-10-02T01:37:19.445Z,76.59
2018-10-02T01:39:43.312Z,76.39
2018-10-02T01:42:07.180Z,76.13
2018-10-02T01:44:31.025Z,75.83
2018-10-02T01:46:54.957Z,75.99
2018-10-02T01:49:18.779Z,76.29
2018-10-02T01:51:42.726Z,75.93
2018-10-02T01:54:06.570Z,76.44
2018-10-02T01:56:30.408Z,76.08
2018-10-02T01:58:54.352Z,74.37
2018-10-02T02:01:18.224Z,73.92
2018-10-02T02:03:42.065Z,74.36
2018-10-02T02:06:05.961Z,75.25
2018-10-02T02:08:29.803Z,75.48
2018-10-02T02:10:53.668Z,75.98
2018-10-02T02:13:17.491Z,73.60
2018-10-02T02:15:41.441Z,74.58
2018-10-02T02:18:05.782Z,75.81
2018-10-02T02:20:29.634Z,75.12
2018-10-02T02:22:53.475Z,74.02
2018-10-02T02:25:17.503Z,74.00
2018-10-02T02:27:41.416Z,75.85
2018-10-02T02:30:05.596Z,76.20
2018-10-02T02:32:29.431Z,75.76
2018-10-02T02:34:53.298Z,75.36
2018-10-02T02:37:17.161Z,76.27
2018-10-02T02:39:41.010Z,75.77
2018-10-02T02:42:04.935Z,74.85
2018-10-02T02:44:28.871Z,75.98
2018-10-02T02:46:52.705Z,76.02
2018-10-02T02:49:21.963Z,74.02
2018-10-02T02:51:45.825Z,76.18
2018-10-02T02:54:09.694Z,75.13
2018-10-02T02:56:33.556Z,75.69
2018-10-02T02:58:58.438Z,74.67
2018-10-02T03:01:22.330Z,74.87
2018-10-02T03:03:46.151Z,76.46
2018-10-02T03:06:10.339Z,76.73
2018-10-02T03:08:34.252Z,76.21
2018-10-02T03:10:58.103Z,75.86
2018-10-02T03:13:22.139Z,75.75
2018-10-02T03:15:46.067Z,75.81
2018-10-02T03:18:09.984Z,76.60
2018-10-02T03:20:33.827Z,76.15
2018-10-02T03:22:57.728Z,74.94
2018-10-02T03:25:21.561Z,74.61
2018-10-02T03:27:45.375Z,74.96
2018-10-02T03:30:09.240Z,74.55
2018-10-02T03:32:33.092Z,74.27
2018-10-02T03:34:56.960Z,75.40
2018-10-02T03:37:20.807Z,75.00
2018-10-02T03:39:44.636Z,74.35
2018-10-02T03:42:08.567Z,74.02
2018-10-02T03:44:32.411Z,75.14
2018-10-02T03:46:56.259Z,74.78
2018-10-02T03:49:20.114Z,74.21
2018-10-02T03:51:43.968Z,74.96
2018-10-02T03:54:07.838Z,74.28
2018-10-02T03:56:31.691Z,73.89
2018-10-02T03:58:55.564Z,74.38
2018-10-02T04:01:19.414Z,74.69
2018-10-02T04:03:43.280Z,74.44
2018-10-02T04:06:07.171Z,73.81
2018-10-02T04:08:31.030Z,74.39
2018-10-02T04:10:54.893Z,73.99
2018-10-02T04:13:18.829Z,74.58
2018-10-02T04:15:42.613Z,73.63
2018-10-02T04:18:06.443Z,74.37
2018-10-02T04:20:30.696Z,75.36
2018-10-02T04:22:54.510Z,74.12
2018-10-02T04:25:18.335Z,75.25
2018-10-02T04:27:42.221Z,74.89
2018-10-02T04:30:06.519Z,73.50
2018-10-02T04:32:30.386Z,73.46
2018-10-02T04:34:54.214Z,74.42
2018-10-02T04:37:18.265Z,72.91
2018-10-02T04:39:42.182Z,75.07
2018-10-02T04:42:06.044Z,74.28
2018-10-02T04:44:29.906Z,74.51
2018-10-02T04:46:53.799Z,74.46
2018-10-02T04:49:17.660Z,73.26
2018-10-02T04:51:41.511Z,75.00
2018-10-02T04:54:05.620Z,72.84
2018-10-02T04:56:29.464Z,75.12
2018-10-02T04:58:53.300Z,74.28
2018-10-02T05:01:17.148Z,74.79
2018-10-02T05:03:41.005Z,73.71
2018-10-02T05:06:04.887Z,74.55
2018-10-02T05:08:28.787Z,74.61
2018-10-02T05:10:52.645Z,74.61
2018-10-02T05:13:16.577Z,75.16
2018-10-02T05:15:40.405Z,73.99
2018-10-02T05:18:04.310Z,73.17
2018-10-02T05:20:28.194Z,74.01
2018-10-02T05:22:52.056Z,73.47
2018-10-02T05:25:15.923Z,73.61
2018-10-02T05:27:39.821Z,73.85
2018-10-02T05:30:03.692Z,74.24
2018-10-02T05:32:27.608Z,74.44
2018-10-02T05:34:51.496Z,73.90
2018-10-02T05:37:15.366Z,73.54
2018-10-02T05:39:39.584Z,74.50
2018-10-02T05:42:03.516Z,73.29
2018-10-02T05:44:27.368Z,74.77
2018-10-02T05:46:51.202Z,73.78
2018-10-02T05:49:15.069Z,73.83
2018-10-02T05:51:39.019Z,73.82
2018-10-02T05:54:02.899Z,74.48
2018-10-02T05:56:26.775Z,73.68
2018-10-02T05:58:50.813Z,74.05
2018-10-02T06:01:14.696Z,71.44
2018-10-02T06:03:38.570Z,73.75
2018-10-02T06:06:02.450Z,73.20
2018-10-02T06:08:26.342Z,72.88
2018-10-02T06:10:50.192Z,72.99
2018-10-02T06:13:14.083Z,74.89
2018-10-02T06:15:37.938Z,73.49
2018-10-02T06:18:01.829Z,73.56
2018-10-02T06:20:25.694Z,73.24
2018-10-02T06:22:49.550Z,75.27
2018-10-02T06:25:13.382Z,72.89
2018-10-02T06:27:37.263Z,73.20
2018-10-02T06:30:01.135Z,74.43
2018-10-02T06:32:25.011Z,73.18
2018-10-02T06:34:48.824Z,73.70
2018-10-02T06:37:12.647Z,73.97
2018-10-02T06:39:36.542Z,72.90
2018-10-02T06:42:01.211Z,72.65
2018-10-02T06:44:25.146Z,73.12
2018-10-02T06:46:48.986Z,72.93
2018-10-02T06:49:12.871Z,71.87
2018-10-02T06:51:36.836Z,72.70
2018-10-02T06:54:00.669Z,71.21
2018-10-02T06:56:24.595Z,72.47
2018-10-02T06:58:48.437Z,72.63
2018-10-02T07:01:12.291Z,72.39
2018-10-02T07:03:36.169Z,73.04
2018-10-02T07:06:00.035Z,72.30
2018-10-02T07:08:23.948Z,71.77
2018-10-02T07:10:47.883Z,73.21
2018-10-02T07:13:11.838Z,72.92
2018-10-02T07:15:35.759Z,73.33
2018-10-02T07:17:59.592Z,73.82
2018-10-02T07:20:23.558Z,73.68
2018-10-02T07:22:47.375Z,75.09
2018-10-02T07:25:11.450Z,75.03
2018-10-02T07:27:35.382Z,74.32
2018-10-02T07:29:59.212Z,74.49
2018-10-02T07:32:23.135Z,75.58
2018-10-02T07:34:46.985Z,73.89
2018-10-02T07:37:10.867Z,74.79
2018-10-02T07:39:34.713Z,75.76
2018-10-02T07:41:58.624Z,75.54
2018-10-02T07:44:22.518Z,76.11
2018-10-02T07:46:46.453Z,76.06
2018-10-02T07:49:10.304Z,76.47
2018-10-02T07:51:35.078Z,76.44
2018-10-02T07:53:59.087Z,76.15
2018-10-02T07:56:23.918Z,75.61
2018-10-02T07:58:47.803Z,77.09
2018-10-02T08:01:11.686Z,77.23
2018-10-02T08:03:35.552Z,76.58
2018-10-02T08:05:59.526Z,75.88
2018-10-02T08:08:23.402Z,76.74
2018-10-02T08:10:47.310Z,75.44
2018-10-02T08:13:11.159Z,76.44
2018-10-02T08:15:35.067Z,77.00
2018-10-02T08:17:59.049Z,76.86
2018-10-02T08:20:22.897Z,77.41
2018-10-02T08:22:46.745Z,76.32
2018-10-02T08:25:10.643Z,76.77
2018-10-02T08:27:34.512Z,76.15
2018-10-02T08:29:58.526Z,75.78
2018-10-02T08:32:22.381Z,75.98
2018-10-02T08:34:46.585Z,75.51
2018-10-02T08:37:10.432Z,74.60
2018-10-02T08:39:34.300Z,75.60
2018-10-02T08:41:58.273Z,75.87
2018-10-02T08:44:22.120Z,74.79
2018-10-02T08:46:46.012Z,75.63
2018-10-02T08:49:09.898Z,75.69
2018-10-02T08:51:33.766Z,76.62
2018-10-02T08:53:57.776Z,77.01
2018-10-02T08:56:21.597Z,77.03
2018-10-02T08:58:45.555Z,75.59
2018-10-02T09:01:09.890Z,75.38
2018-10-02T09:03:33.731Z,75.77
2018-10-02T09:05:57.654Z,76.41
2018-10-02T09:08:21.492Z,76.36
2018-10-02T09:10:45.604Z,75.80
2018-10-02T09:13:09.526Z,76.73
2018-10-02T09:15:33.436Z,75.78
2018-10-02T09:17:57.348Z,76.18
2018-10-02T09:20:21.211Z,75.93
2018-10-02T09:22:45.088Z,77.10
2018-10-02T09:25:09.023Z,77.33
2018-10-02T09:27:32.897Z,77.25
2018-10-02T09:30:02.028Z,76.71
2018-10-02T09:32:31.392Z,76.53
2018-10-02T09:35:00.656Z,77.12
2018-10-02T09:37:29.891Z,76.02
2018-10-02T09:39:59.097Z,76.12
2018-10-02T09:42:28.221Z,76.82
2018-10-02T09:44:52.114Z,77.28
2018-10-02T09:47:16.021Z,76.15
2018-10-02T09:49:40.027Z,76.03
2018-10-02T09:52:03.874Z,76.91
2018-10-02T09:54:27.820Z,77.74
2018-10-02T09:56:51.660Z,77.33
2018-10-02T09:59:16.357Z,77.84
2018-10-02T10:01:45.488Z,76.99
2018-10-02T10:04:09.484Z,76.35
2018-10-02T10:06:33.382Z,77.19
2018-10-02T10:08:57.486Z,77.39
2018-10-02T10:11:21.387Z,77.74
2018-10-02T10:13:45.302Z,78.11
2018-10-02T10:16:09.207Z,77.02
2018-10-02T10:18:33.123Z,77.10
2018-10-02T10:20:57.242Z,78.76
2018-10-02T10:23:21.112Z,76.60
2018-10-02T10:25:44.992Z,78.07
2018-10-02T10:28:08.864Z,78.87
2018-10-02T10:30:32.773Z,78.21
2018-10-02T10:32:56.695Z,78.34
2018-10-02T10:35:20.626Z,78.51
2018-10-02T10:37:44.555Z,78.76
2018-10-02T10:40:08.500Z,78.10
2018-10-02T10:42:32.705Z,79.23
2018-10-02T10:44:56.689Z,78.96
2018-10-02T10:47:20.696Z,79.37
2018-10-02T10:49:44.587Z,78.53
2018-10-02T10:52:08.541Z,77.19
2018-10-02T10:54:32.596Z,77.79
2018-10-02T10:56:56.497Z,78.33
2018-10-02T10:59:20.602Z,79.46
2018-10-02T11:01:44.448Z,77.92
2018-10-02T11:04:08.362Z,79.01
2018-10-02T11:06:32.298Z,79.90
2018-10-02T11:08:56.157Z,79.82
2018-10-02T11:11:20.051Z,79.26
2018-10-02T11:13:43.942Z,78.60
2018-10-02T11:16:07.951Z,79.13
2018-10-02T11:18:31.865Z,79.40
2018-10-02T11:20:55.960Z,79.37
2018-10-02T11:23:19.858Z,80.76
2018-10-02T11:25:43.812Z,80.41
2018-10-02T11:28:07.646Z,79.60
2018-10-02T11:30:31.551Z,80.57
2018-10-02T11:32:55.435Z,79.16
2018-10-02T11:35:19.389Z,80.54
2018-10-02T11:37:43.505Z,80.31
2018-10-02T11:40:07.371Z,79.45
2018-10-02T11:42:31.283Z,79.20
2018-10-02T11:44:55.218Z,80.77
2018-10-02T11:47:19.113Z,81.49
2018-10-02T11:49:43.051Z,80.58
2018-10-02T11:52:06.984Z,81.13
2018-10-02T11:54:30.885Z,80.76
2018-10-02T11:56:54.805Z,81.23
2018-10-02T11:59:18.657Z,80.74
2018-10-02T12:01:42.541Z,81.41
2018-10-02T12:04:06.556Z,81.95
2018-10-02T12:06:30.481Z,81.17
2018-10-02T12:08:54.421Z,81.21
2018-10-02T12:11:18.282Z,81.73
2018-10-02T12:13:42.237Z,82.63
2018-10-02T12:16:06.040Z,81.19
2018-10-02T12:18:30.024Z,81.51
2018-10-02T12:20:53.929Z,81.59
2018-10-02T12:23:17.811Z,82.00
2018-10-02T12:25:41.702Z,81.79
2018-10-02T12:28:05.609Z,81.48
2018-10-02T12:30:29.520Z,81.84
2018-10-02T12:32:53.449Z,82.25
2018-10-02T12:35:17.334Z,83.00
2018-10-02T12:37:41.220Z,83.13
2018-10-02T12:40:05.237Z,82.34
2018-10-02T12:42:29.202Z,81.47
2018-10-02T12:44:53.120Z,82.14
2018-10-02T12:47:17.017Z,81.97
2018-10-02T12:49:40.947Z,82.33
2018-10-02T12:52:04.821Z,82.10
2018-10-02T12:54:28.773Z,81.26
2018-10-02T12:56:52.680Z,82.79
2018-10-02T12:59:16.547Z,82.67
2018-10-02T13:01:40.473Z,82.04
2018-10-02T13:04:04.394Z,83.32
2018-10-02T13:06:28.424Z,83.47
2018-10-02T13:08:52.345Z,83.38
2018-10-02T13:11:16.236Z,83.83
2018-10-02T13:13:40.246Z,82.92
2018-10-02T13:16:04.127Z,82.51
2018-10-02T13:18:27.989Z,82.47
2018-10-02T13:20:51.868Z,82.60
2018-10-02T13:23:15.793Z,82.75
2018-10-02T13:25:39.734Z,83.41
2018-10-02T13:28:03.635Z,82.59
2018-10-02T13:30:27.602Z,82.93
2018-10-02T13:32:51.510Z,82.84
2018-10-02T13:35:15.397Z,82.25
2018-10-02T13:37:39.515Z,82.22
2018-10-02T13:40:03.467Z,82.11
2018-10-02T13:42:27.550Z,82.35
2018-10-02T13:44:51.441Z,81.69
2018-10-02T13:47:16.167Z,82.50
2018-10-02T13:49:40.082Z,82.54
2018-10-02T13:52:04.039Z,82.92
2018-10-02T13:54:27.999Z,82.66
2018-10-02T13:56:51.913Z,82.22
2018-10-02T13:59:15.976Z,82.22
2018-10-02T14:01:39.829Z,81.44
2018-10-02T14:04:03.733Z,81.65
2018-10-02T14:06:27.784Z,82.39
2018-10-02T14:08:51.653Z,82.15
2018-10-02T14:11:15.656Z,81.62
2018-10-02T14:13:39.572Z,82.06
2018-10-02T14:16:03.459Z,81.53
2018-10-02T14:18:27.404Z,81.75
2018-10-02T14:20:51.295Z,82.00
2018-10-02T14:23:15.215Z,82.86
2018-10-02T14:25:39.095Z,81.96
2018-10-02T14:28:03.043Z,82.58
2018-10-02T14:30:26.917Z,82.51
2018-10-02T14:32:50.852Z,83.17
2018-10-02T14:35:14.932Z,83.08
2018-10-02T14:37:38.796Z,82.33
2018-10-02T14:40:02.700Z,83.28
2018-10-02T14:42:26.614Z,83.06
2018-10-02T14:44:50.540Z,82.32
2018-10-02T14:47:15.180Z,82.42
2018-10-02T14:49:39.170Z,82.56
2018-10-02T14:52:03.253Z,82.97
2018-10-02T14:54:27.268Z,82.61
2018-10-02T14:56:51.201Z,82.57
2018-10-02T14:59:15.159Z,82.98
2018-10-02T15:01:39.066Z,82.84
2018-10-02T15:04:02.947Z,83.82
2018-10-02T15:06:26.944Z,82.75
2018-10-02T15:08:50.874Z,83.11
2018-10-02T15:11:14.749Z,83.83
2018-10-02T15:13:38.705Z,83.50
2018-10-02T15:16:02.613Z,83.23
2018-10-02T15:18:26.594Z,83.49
2018-10-02T15:20:50.482Z,83.14
2018-10-02T15:23:14.396Z,82.93
2018-10-02T15:25:38.303Z,82.98
2018-10-02T15:28:02.197Z,82.88
2018-10-02T15:30:26.413Z,82.63
2018-10-02T15:32:50.369Z,83.22
2018-10-02T15:35:14.367Z,82.67
2018-10-02T15:37:38.366Z,83.08
2018-10-02T15:40:02.244Z,83.69
2018-10-02T15:42:26.243Z,83.41
2018-10-02T15:44:50.174Z,84.08
2018-10-02T15:47:14.182Z,83.87
2018-10-02T15:49:38.079Z,82.02
2018-10-02T15:52:01.933Z,82.39
2018-10-02T15:54:25.875Z,83.31
2018-10-02T15:56:49.751Z,83.31
2018-10-02T15:59:13.675Z,83.21
2018-10-02T16:01:37.696Z,83.25
2018-10-02T16:04:01.602Z,82.92
2018-10-02T16:06:25.532Z,83.23
2018-10-02T16:08:49.453Z,84.24
2018-10-02T16:11:13.414Z,84.82
2018-10-02T16:13:37.223Z,83.91
2018-10-02T16:16:01.210Z,85.18
2018-10-02T16:18:25.154Z,85.22
2018-10-02T16:20:49.064Z,85.20
2018-10-02T16:23:12.959Z,85.21
2018-10-02T16:25:36.844Z,85.12
2018-10-02T16:28:01.074Z,84.54
2018-10-02T16:30:24.990Z,85.38
2018-10-02T16:32:48.899Z,84.96
2018-10-02T16:35:12.792Z,84.63
2018-10-02T16:37:36.920Z,84.83
2018-10-02T16:40:00.817Z,84.99
2018-10-02T16:42:24.772Z,84.63
2018-10-02T16:44:48.715Z,84.94
2018-10-02T16:47:12.709Z,85.21
2018-10-02T16:49:36.484Z,84.43
2018-10-02T16:52:00.439Z,85.18
2018-10-02T16:54:24.344Z,84.85
2018-10-02T16:56:48.270Z,84.61
2018-10-02T16:59:12.154Z,84.43
2018-10-02T17:01:36.062Z,84.50
2018-10-02T17:03:59.998Z,84.24
2018-10-02T17:06:23.890Z,84.72
2018-10-02T17:08:47.914Z,84.33
2018-10-02T17:11:11.865Z,84.77
2018-10-02T17:13:35.777Z,83.92
2018-10-02T17:15:59.725Z,84.09
2018-10-02T17:18:23.661Z,82.71
2018-10-02T17:20:47.686Z,83.04
2018-10-02T17:23:11.582Z,82.97
2018-10-02T17:25:35.509Z,82.57
2018-10-02T17:27:59.457Z,83.69
2018-10-02T17:30:23.381Z,83.57
2018-10-02T17:32:47.325Z,83.60
2018-10-02T17:35:11.258Z,84.10
2018-10-02T17:37:35.170Z,84.25
2018-10-02T17:39:59.091Z,83.72
2018-10-02T17:42:23.033Z,83.04
2018-10-02T17:44:47.263Z,84.45
2018-10-02T17:47:11.371Z,84.78
2018-10-02T17:49:35.374Z,83.87
2018-10-02T17:51:59.296Z,83.84
2018-10-02T17:54:23.200Z,83.67
2018-10-02T17:56:47.111Z,82.99
2018-10-02T17:59:11.069Z,83.20
2018-10-02T18:01:35.044Z,84.02
2018-10-02T18:03:58.986Z,83.34
2018-10-02T18:06:22.946Z,82.89
2018-10-02T18:08:46.860Z,83.04
2018-10-02T18:11:10.854Z,83.12
2018-10-02T18:13:34.746Z,82.96
2018-10-02T18:15:58.678Z,82.85
2018-10-02T18:18:22.601Z,82.33
2018-10-02T18:20:46.530Z,82.25
2018-10-02T18:23:10.519Z,82.11
2018-10-02T18:25:34.522Z,82.06
2018-10-02T18:27:58.397Z,82.26
2018-10-02T18:30:22.322Z,81.97
2018-10-02T18:32:46.274Z,81.76
2018-10-02T18:35:10.217Z,82.19
2018-10-02T18:37:34.167Z,81.71
2018-10-02T18:39:58.109Z,81.10
2018-10-02T18:42:22.036Z,80.72
2018-10-02T18:44:45.925Z,80.73
2018-10-02T18:47:09.887Z,80.56
2018-10-02T18:49:33.982Z,80.57
2018-10-02T18:51:57.897Z,80.01
2018-10-02T18:54:21.801Z,79.72
2018-10-02T18:56:45.822Z,79.45
2018-10-02T18:59:09.793Z,80.08
2018-10-02T19:01:33.693Z,79.66
2018-10-02T19:03:57.630Z,79.55
2018-10-02T19:06:21.594Z,78.80
2018-10-02T19:08:50.856Z,78.42
2018-10-02T19:11:20.169Z,78.87
2018-10-02T19:13:44.053Z,79.00
2018-10-02T19:16:13.203Z,78.81
2018-10-02T19:18:37.346Z,78.46
2018-10-02T19:21:01.230Z,79.03
2018-10-02T19:23:25.207Z,78.65
2018-10-02T19:25:54.388Z,78.87
2018-10-02T19:28:18.369Z,78.15
2018-10-02T19:30:47.639Z,78.08
2018-10-02T19:33:11.545Z,77.84
2018-10-02T19:35:35.460Z,78.05
2018-10-02T19:38:04.745Z,77.73
2018-10-02T19:40:28.712Z,77.80
2018-10-02T19:42:52.655Z,77.94
2018-10-02T19:45:22.070Z,77.76
2018-10-02T19:47:46.027Z,77.11
2018-10-02T19:50:09.992Z,78.04
2018-10-02T19:52:33.919Z,77.92
2018-10-02T19:54:57.814Z,77.79
2018-10-02T19:57:21.726Z,77.98
2018-10-02T19:59:45.707Z,78.00
2018-10-02T20:02:09.633Z,77.93
2018-10-02T20:04:33.736Z,77.99
2018-10-02T20:06:57.691Z,78.50
2018-10-02T20:09:21.680Z,78.88
2018-10-02T20:11:45.622Z,78.13
2018-10-02T20:14:10.085Z,78.24
2018-10-02T20:16:34.100Z,78.00
2018-10-02T20:18:58.083Z,77.96
2018-10-02T20:21:22.070Z,78.08
2018-10-02T20:23:46.025Z,77.93
2018-10-02T20:26:09.937Z,78.90
2018-10-02T20:28:33.867Z,78.89
2018-10-02T20:30:57.784Z,78.89
2018-10-02T20:33:21.732Z,78.89
2018-10-02T20:35:45.629Z,79.13
2018-10-02T20:38:09.552Z,78.41
2018-10-02T20:40:33.475Z,78.64
2018-10-02T20:42:57.413Z,78.59
2018-10-02T20:45:21.385Z,77.54
2018-10-02T20:47:45.302Z,77.51
2018-10-02T20:50:09.392Z,78.19
2018-10-02T20:52:33.326Z,78.27
2018-10-02T20:54:57.267Z,78.11
2018-10-02T20:57:21.191Z,78.34
2018-10-02T20:59:45.120Z,78.66
2018-10-02T21:02:09.073Z,78.24
2018-10-02T21:04:32.998Z,78.56
2018-10-02T21:06:56.965Z,78.75
2018-10-02T21:09:20.898Z,77.74
2018-10-02T21:11:44.963Z,78.58
2018-10-02T21:14:08.884Z,77.23
2018-10-02T21:16:32.789Z,78.19
2018-10-02T21:18:56.886Z,78.32
2018-10-02T21:21:20.842Z,78.08
2018-10-02T21:23:44.707Z,77.93
2018-10-02T21:26:08.609Z,78.05
2018-10-02T21:28:32.641Z,78.16
2018-10-02T21:30:56.557Z,78.17
2018-10-02T21:33:20.456Z,78.08
2018-10-02T21:35:44.623Z,77.56
2018-10-02T21:38:08.549Z,77.32
2018-10-02T21:40:32.428Z,77.71
2018-10-02T21:42:56.600Z,77.02
2018-10-02T21:45:20.562Z,77.29
2018-10-02T21:47:44.762Z,76.94
2018-10-02T21:50:08.659Z,77.10
2018-10-02T21:52:32.572Z,77.15
2018-10-02T21:54:56.531Z,77.35
2018-10-02T21:57:20.432Z,77.22
2018-10-02T21:59:44.418Z,77.26
2018-10-02T22:02:08.342Z,77.93
2018-10-02T22:04:32.243Z,77.80
2018-10-02T22:06:56.157Z,77.94
2018-10-02T22:09:20.068Z,78.07
2018-10-02T22:11:44.010Z,77.58
2018-10-02T22:14:07.967Z,77.88
2018-10-02T22:16:31.830Z,78.75
2018-10-02T22:18:55.740Z,78.63
2018-10-02T22:21:19.650Z,78.26
2018-10-02T22:23:43.561Z,78.64
2018-10-02T22:26:07.459Z,78.05
2018-10-02T22:28:31.308Z,77.84
2018-10-02T22:30:55.221Z,78.06
2018-10-02T22:33:19.212Z,77.69
2018-10-02T22:35:43.043Z,78.17
2018-10-02T22:38:06.934Z,77.69
2018-10-02T22:40:30.843Z,78.11
2018-10-02T22:42:54.790Z,77.52
2018-10-02T22:45:18.656Z,77.64
2018-10-02T22:47:42.581Z,77.90
2018-10-02T22:50:06.571Z,77.42
2018-10-02T22:52:30.441Z,76.82
2018-10-02T22:54:54.365Z,77.73
2018-10-02T22:57:18.218Z,76.48
2018-10-02T22:59:42.126Z,76.73
2018-10-02T23:02:05.992Z,76.80
2018-10-02T23:04:29.877Z,77.29
2018-10-02T23:06:53.782Z,77.13
2018-10-02T23:09:17.735Z,77.15
2018-10-02T23:11:41.712Z,76.97
2018-10-02T23:14:05.625Z,77.33
2018-10-02T23:16:29.480Z,77.12
2018-10-02T23:18:53.394Z,76.97
2018-10-02T23:21:17.282Z,76.58
2018-10-02T23:23:41.140Z,77.13
2018-10-02T23:26:05.060Z,76.87
2018-10-02T23:28:28.983Z,76.31
2018-10-02T23:30:52.921Z,76.77
2018-10-02T23:33:16.815Z,76.37
2018-10-02T23:35:40.679Z,76.14
2018-10-02T23:38:04.560Z,76.16
2018-10-02T23:40:28.446Z,75.75
2018-10-02T23:42:52.367Z,76.12
2018-10-02T23:45:16.294Z,76.34
2018-10-02T23:47:40.239Z,76.49
2018-10-02T23:50:04.306Z,76.04
2018-10-02T23:52:28.152Z,75.47
2018-10-02T23:54:52.090Z,75.64
2018-10-02T23:57:15.962Z,75.59
2018-10-02T23:59:39.854Z,74.95
